METAR és
SPECI
METAR LHBP 272200Z 10006KT CAVOK 14/08 Q1004 NOSIG=
METAR LHBP 272130Z 10005KT CAVOK 15/09 Q1004 NOSIG=
METAR LHBP 272100Z 07004KT CAVOK 14/09 Q1005 NOSIG=
METAR LHBP 272030Z VRB02KT CAVOK 15/09 Q1005 NOSIG=
METAR LHBP 272000Z 10006KT CAVOK 16/09 Q1005 NOSIG=
METAR LHBP 271930Z 10004KT CAVOK 18/09 Q1005 NOSIG=
TAF
TAF LHBP 271700Z 2718/2818 17007KT CAVOK BECMG 2718/2720 13007KT TEMPO 2720/2804 VRB03KT BECMG 2804/2806 17006KT SCT035 BKN070 TEMPO 2806/2818 -SHRA SCT020 BKN045 BECMG 2813/2816 31008KT BECMG 2816/2818 32014G24KT=
GAMET
Nincs érvényes távirat! 
FAHU41 LHBM 271100
LHCC GAMET VALID 271200/271800 LHBP-
BUDAPEST FIR BLW FL100
SECN 1
SIGWX: 13/18 ISOL TS
SIG CLD: 12/18 ISOL TCU CB 4000-5500/XXX FT AGL
TURB: MOD SFC/FL100 W OF E01900
MOD SFC/5000 FT AMSL E OF E01900
SIGMETS APPLICABLE: NIL=
OMSZ: 2015. április 27. 13:06 (11:06  UTC)
[FAHU41]
AIRMET
Nincs érvényes távirat! 
WAHU41 LHBM 181630
LHCC AIRMET 01 VALID 181630/181800 LHBP-
LHCC BUDAPEST FIR ISOL TS SE OF LINE N4734 E02206 -
N4716 E01958 - N4611 E01958 TOP ABV FL100 MOV S WKN=
OMSZ: 2015. április 18. 18:38 (16:38  UTC)
[WAHU41]
SIGMET
Nincs érvényes távirat! 
WSHU31 LHBM 171645
LHCC SIGMET 03 VALID 171645/1815 LHBP-
LHCC BUDAPEST FIR CNL SIGMET 02 171615/171815=
OMSZ: 2015. április 17. 18:52 (16:52  UTC)
[WSHU31]
SIGMET
Vulkáni hamufelhő
Nincs érvényes távirat! 
WVHU31 LHBM 271515 CCA
LHCC SIGMET 03 VALID 271515/271800 LHBP-
LHCC BUDAPEST FIR EXERCISE VOLCEX12/01
CNL VA SIGMET 02 271200/271800
EXERCISE EXERCISE EXERCISE VOLCEX12/01=
OMSZ: 2015. április 14. 15:15 (13:15  UTC)
[WVHU31]